sensor_id;sensor_type;location;lat;lon;timestamp;P1;durP1;ratioP1;P2;durP2;ratioP2
23142;SDS011;11740;51.168;4.112;2022-07-06T00:01:10;3.83;;;1.75;;
23142;SDS011;11740;51.168;4.112;2022-07-06T00:03:37;2.83;;;1.48;;
23142;SDS011;11740;51.168;4.112;2022-07-06T00:06:04;4.35;;;2.05;;
23142;SDS011;11740;51.168;4.112;2022-07-06T00:08:31;5.80;;;2.10;;
23142;SDS011;11740;51.168;4.112;2022-07-06T00:10:59;4.47;;;2.08;;
23142;SDS011;11740;51.168;4.112;2022-07-06T00:13:26;4.28;;;2.03;;
23142;SDS011;11740;51.168;4.112;2022-07-06T00:15:53;3.80;;;2.10;;
23142;SDS011;11740;51.168;4.112;2022-07-06T00:18:21;6.35;;;2.30;;
23142;SDS011;11740;51.168;4.112;2022-07-06T00:20:49;4.35;;;2.10;;
23142;SDS011;11740;51.168;4.112;2022-07-06T00:23:16;5.03;;;2.50;;
23142;SDS011;11740;51.168;4.112;2022-07-06T00:25:45;4.85;;;2.13;;
23142;SDS011;11740;51.168;4.112;2022-07-06T00:28:14;5.57;;;2.30;;
23142;SDS011;11740;51.168;4.112;2022-07-06T00:30:42;5.32;;;2.22;;
23142;SDS011;11740;51.168;4.112;2022-07-06T00:33:09;3.85;;;2.13;;
23142;SDS011;11740;51.168;4.112;2022-07-06T00:35:36;4.10;;;2.15;;
23142;SDS011;11740;51.168;4.112;2022-07-06T00:38:05;3.85;;;2.13;;
23142;SDS011;11740;51.168;4.112;2022-07-06T00:40:34;4.03;;;2.10;;
23142;SDS011;11740;51.168;4.112;2022-07-06T00:43:01;4.70;;;2.45;;
23142;SDS011;11740;51.168;4.112;2022-07-06T00:45:28;5.68;;;2.33;;
23142;SDS011;11740;51.168;4.112;2022-07-06T00:47:55;3.88;;;2.25;;
23142;SDS011;11740;51.168;4.112;2022-07-06T00:50:22;3.35;;;1.98;;
23142;SDS011;11740;51.168;4.112;2022-07-06T00:52:53;5.63;;;2.25;;
23142;SDS011;11740;51.168;4.112;2022-07-06T00:55:23;2.63;;;1.90;;
23142;SDS011;11740;51.168;4.112;2022-07-06T00:57:53;5.28;;;2.05;;
23142;SDS011;11740;51.168;4.112;2022-07-06T01:00:23;4.93;;;2.10;;
23142;SDS011;11740;51.168;4.112;2022-07-06T01:02:52;3.72;;;1.92;;
23142;SDS011;11740;51.168;4.112;2022-07-06T01:05:21;3.42;;;2.00;;
23142;SDS011;11740;51.168;4.112;2022-07-06T01:07:50;4.43;;;2.25;;
23142;SDS011;11740;51.168;4.112;2022-07-06T01:10:19;2.83;;;2.00;;
23142;SDS011;11740;51.168;4.112;2022-07-06T01:12:48;4.40;;;2.33;;
23142;SDS011;11740;51.168;4.112;2022-07-06T01:15:20;6.10;;;2.65;;
23142;SDS011;11740;51.168;4.112;2022-07-06T01:17:49;3.75;;;2.20;;
23142;SDS011;11740;51.168;4.112;2022-07-06T01:22:45;3.95;;;2.13;;
23142;SDS011;11740;51.168;4.112;2022-07-06T01:25:14;4.07;;;2.22;;
23142;SDS011;11740;51.168;4.112;2022-07-06T01:27:41;5.43;;;2.38;;
23142;SDS011;11740;51.168;4.112;2022-07-06T01:30:10;4.72;;;2.15;;
23142;SDS011;11740;51.168;4.112;2022-07-06T01:32:40;4.13;;;2.13;;
23142;SDS011;11740;51.168;4.112;2022-07-06T01:35:09;4.18;;;2.42;;
23142;SDS011;11740;51.168;4.112;2022-07-06T01:37:39;4.82;;;2.28;;
23142;SDS011;11740;51.168;4.112;2022-07-06T01:40:08;4.32;;;2.33;;
23142;SDS011;11740;51.168;4.112;2022-07-06T01:42:37;4.00;;;2.72;;
23142;SDS011;11740;51.168;4.112;2022-07-06T01:45:05;3.80;;;2.65;;
23142;SDS011;11740;51.168;4.112;2022-07-06T01:47:34;4.10;;;2.65;;
23142;SDS011;11740;51.168;4.112;2022-07-06T01:50:04;5.55;;;2.47;;
23142;SDS011;11740;51.168;4.112;2022-07-06T01:52:33;4.13;;;2.65;;
23142;SDS011;11740;51.168;4.112;2022-07-06T01:55:01;5.43;;;2.50;;
23142;SDS011;11740;51.168;4.112;2022-07-06T01:57:28;3.88;;;2.17;;
23142;SDS011;11740;51.168;4.112;2022-07-06T01:59:55;4.35;;;2.35;;
23142;SDS011;11740;51.168;4.112;2022-07-06T02:02:22;3.40;;;2.20;;
23142;SDS011;11740;51.168;4.112;2022-07-06T02:04:48;2.85;;;2.05;;
23142;SDS011;11740;51.168;4.112;2022-07-06T02:07:16;4.90;;;1.95;;
23142;SDS011;11740;51.168;4.112;2022-07-06T02:09:43;3.35;;;2.25;;
23142;SDS011;11740;51.168;4.112;2022-07-06T02:12:10;2.63;;;2.35;;
23142;SDS011;11740;51.168;4.112;2022-07-06T02:14:37;6.20;;;2.92;;
23142;SDS011;11740;51.168;4.112;2022-07-06T02:17:04;4.10;;;2.50;;
23142;SDS011;11740;51.168;4.112;2022-07-06T02:19:31;5.72;;;2.72;;
23142;SDS011;11740;51.168;4.112;2022-07-06T02:21:58;5.03;;;3.08;;
23142;SDS011;11740;51.168;4.112;2022-07-06T02:24:25;4.28;;;2.90;;
23142;SDS011;11740;51.168;4.112;2022-07-06T02:26:52;4.90;;;2.90;;
23142;SDS011;11740;51.168;4.112;2022-07-06T02:29:19;5.60;;;3.30;;
23142;SDS011;11740;51.168;4.112;2022-07-06T02:31:46;5.57;;;3.13;;
23142;SDS011;11740;51.168;4.112;2022-07-06T02:34:13;5.45;;;3.22;;
23142;SDS011;11740;51.168;4.112;2022-07-06T02:36:40;3.45;;;2.58;;
23142;SDS011;11740;51.168;4.112;2022-07-06T02:39:07;6.00;;;3.05;;
23142;SDS011;11740;51.168;4.112;2022-07-06T02:41:34;4.97;;;2.95;;
23142;SDS011;11740;51.168;4.112;2022-07-06T02:44:01;9.32;;;2.88;;
23142;SDS011;11740;51.168;4.112;2022-07-06T02:46:29;5.60;;;3.25;;
23142;SDS011;11740;51.168;4.112;2022-07-06T02:48:56;5.47;;;2.85;;
23142;SDS011;11740;51.168;4.112;2022-07-06T02:51:23;7.53;;;3.35;;
23142;SDS011;11740;51.168;4.112;2022-07-06T02:53:50;4.18;;;3.10;;
23142;SDS011;11740;51.168;4.112;2022-07-06T02:56:17;3.05;;;2.72;;
23142;SDS011;11740;51.168;4.112;2022-07-06T02:58:44;4.95;;;2.83;;
23142;SDS011;11740;51.168;4.112;2022-07-06T03:01:11;7.97;;;3.65;;
23142;SDS011;11740;51.168;4.112;2022-07-06T03:03:39;5.57;;;2.40;;
23142;SDS011;11740;51.168;4.112;2022-07-06T03:06:06;4.28;;;3.00;;
23142;SDS011;11740;51.168;4.112;2022-07-06T03:08:33;4.30;;;2.60;;
23142;SDS011;11740;51.168;4.112;2022-07-06T03:11:01;3.63;;;2.33;;
23142;SDS011;11740;51.168;4.112;2022-07-06T03:13:28;3.72;;;2.70;;
23142;SDS011;11740;51.168;4.112;2022-07-06T03:15:55;5.15;;;3.00;;
23142;SDS011;11740;51.168;4.112;2022-07-06T03:18:22;3.92;;;2.60;;
23142;SDS011;11740;51.168;4.112;2022-07-06T03:20:50;3.17;;;2.38;;
23142;SDS011;11740;51.168;4.112;2022-07-06T03:23:17;6.38;;;2.85;;
23142;SDS011;11740;51.168;4.112;2022-07-06T03:25:44;4.40;;;3.28;;
23142;SDS011;11740;51.168;4.112;2022-07-06T03:28:11;6.18;;;3.40;;
23142;SDS011;11740;51.168;4.112;2022-07-06T03:30:38;4.75;;;3.35;;
23142;SDS011;11740;51.168;4.112;2022-07-06T03:33:05;4.65;;;3.10;;
23142;SDS011;11740;51.168;4.112;2022-07-06T03:35:32;3.63;;;2.50;;
23142;SDS011;11740;51.168;4.112;2022-07-06T03:37:59;4.85;;;2.70;;
23142;SDS011;11740;51.168;4.112;2022-07-06T03:40:27;3.22;;;2.10;;
23142;SDS011;11740;51.168;4.112;2022-07-06T03:42:55;3.03;;;2.17;;
23142;SDS011;11740;51.168;4.112;2022-07-06T03:45:23;4.07;;;2.40;;
23142;SDS011;11740;51.168;4.112;2022-07-06T03:47:50;5.78;;;2.00;;
23142;SDS011;11740;51.168;4.112;2022-07-06T03:50:17;3.00;;;1.85;;
23142;SDS011;11740;51.168;4.112;2022-07-06T03:52:44;2.20;;;2.03;;
23142;SDS011;11740;51.168;4.112;2022-07-06T03:55:11;2.38;;;2.00;;
23142;SDS011;11740;51.168;4.112;2022-07-06T03:57:38;3.67;;;2.00;;
23142;SDS011;11740;51.168;4.112;2022-07-06T04:00:07;2.47;;;2.15;;
23142;SDS011;11740;51.168;4.112;2022-07-06T04:02:35;8.43;;;3.17;;
23142;SDS011;11740;51.168;4.112;2022-07-06T04:05:02;4.82;;;3.00;;
23142;SDS011;11740;51.168;4.112;2022-07-06T04:07:30;3.75;;;2.80;;
23142;SDS011;11740;51.168;4.112;2022-07-06T04:09:57;3.50;;;3.03;;
23142;SDS011;11740;51.168;4.112;2022-07-06T04:12:24;4.00;;;3.47;;
23142;SDS011;11740;51.168;4.112;2022-07-06T04:14:51;5.25;;;4.22;;
23142;SDS011;11740;51.168;4.112;2022-07-06T04:17:18;4.65;;;3.78;;
23142;SDS011;11740;51.168;4.112;2022-07-06T04:20:04;7.47;;;4.25;;
23142;SDS011;11740;51.168;4.112;2022-07-06T04:22:31;7.55;;;4.47;;
23142;SDS011;11740;51.168;4.112;2022-07-06T04:24:58;8.05;;;4.30;;
23142;SDS011;11740;51.168;4.112;2022-07-06T04:27:25;8.48;;;4.70;;
23142;SDS011;11740;51.168;4.112;2022-07-06T04:29:52;8.73;;;4.60;;
23142;SDS011;11740;51.168;4.112;2022-07-06T04:32:20;7.45;;;4.55;;
23142;SDS011;11740;51.168;4.112;2022-07-06T04:34:50;7.53;;;5.00;;
23142;SDS011;11740;51.168;4.112;2022-07-06T04:37:18;7.95;;;5.43;;
23142;SDS011;11740;51.168;4.112;2022-07-06T04:39:45;9.35;;;5.80;;
23142;SDS011;11740;51.168;4.112;2022-07-06T04:42:12;7.13;;;5.45;;
23142;SDS011;11740;51.168;4.112;2022-07-06T04:44:39;8.57;;;5.70;;
23142;SDS011;11740;51.168;4.112;2022-07-06T04:47:07;8.88;;;5.85;;
23142;SDS011;11740;51.168;4.112;2022-07-06T04:49:34;8.30;;;6.40;;
23142;SDS011;11740;51.168;4.112;2022-07-06T04:52:01;8.32;;;5.60;;
23142;SDS011;11740;51.168;4.112;2022-07-06T04:54:29;8.32;;;5.97;;
23142;SDS011;11740;51.168;4.112;2022-07-06T04:56:56;9.95;;;5.65;;
23142;SDS011;11740;51.168;4.112;2022-07-06T04:59:23;8.00;;;5.45;;
23142;SDS011;11740;51.168;4.112;2022-07-06T05:01:50;12.40;;;5.57;;
23142;SDS011;11740;51.168;4.112;2022-07-06T05:04:17;9.48;;;6.10;;
23142;SDS011;11740;51.168;4.112;2022-07-06T05:06:47;7.70;;;5.32;;
23142;SDS011;11740;51.168;4.112;2022-07-06T05:09:14;7.82;;;6.20;;
23142;SDS011;11740;51.168;4.112;2022-07-06T05:11:41;7.53;;;5.47;;
23142;SDS011;11740;51.168;4.112;2022-07-06T05:14:08;12.95;;;5.90;;
23142;SDS011;11740;51.168;4.112;2022-07-06T05:16:35;8.73;;;5.47;;
23142;SDS011;11740;51.168;4.112;2022-07-06T05:19:03;8.23;;;5.95;;
23142;SDS011;11740;51.168;4.112;2022-07-06T05:21:30;9.38;;;6.18;;
23142;SDS011;11740;51.168;4.112;2022-07-06T05:23:57;7.63;;;5.82;;
23142;SDS011;11740;51.168;4.112;2022-07-06T05:26:24;10.15;;;6.88;;
23142;SDS011;11740;51.168;4.112;2022-07-06T05:28:51;9.63;;;6.57;;
23142;SDS011;11740;51.168;4.112;2022-07-06T05:31:18;10.75;;;7.15;;
23142;SDS011;11740;51.168;4.112;2022-07-06T05:33:45;9.70;;;6.53;;
23142;SDS011;11740;51.168;4.112;2022-07-06T05:36:12;12.98;;;6.88;;
23142;SDS011;11740;51.168;4.112;2022-07-06T05:38:39;12.20;;;7.28;;
23142;SDS011;11740;51.168;4.112;2022-07-06T05:41:06;16.48;;;8.95;;
23142;SDS011;11740;51.168;4.112;2022-07-06T05:43:36;13.93;;;7.65;;
23142;SDS011;11740;51.168;4.112;2022-07-06T05:46:05;9.90;;;7.57;;
23142;SDS011;11740;51.168;4.112;2022-07-06T05:48:32;13.05;;;7.53;;
23142;SDS011;11740;51.168;4.112;2022-07-06T05:51:17;10.98;;;8.15;;
23142;SDS011;11740;51.168;4.112;2022-07-06T05:53:44;13.25;;;8.30;;
23142;SDS011;11740;51.168;4.112;2022-07-06T05:56:13;20.10;;;9.57;;
23142;SDS011;11740;51.168;4.112;2022-07-06T05:58:41;14.48;;;9.75;;
23142;SDS011;11740;51.168;4.112;2022-07-06T06:01:08;13.02;;;8.93;;
23142;SDS011;11740;51.168;4.112;2022-07-06T06:03:35;14.18;;;9.25;;
23142;SDS011;11740;51.168;4.112;2022-07-06T06:06:03;10.98;;;8.32;;
23142;SDS011;11740;51.168;4.112;2022-07-06T06:08:30;14.68;;;8.93;;
23142;SDS011;11740;51.168;4.112;2022-07-06T06:10:57;14.65;;;8.40;;
23142;SDS011;11740;51.168;4.112;2022-07-06T06:13:24;13.80;;;8.52;;
23142;SDS011;11740;51.168;4.112;2022-07-06T06:15:51;15.20;;;8.93;;
23142;SDS011;11740;51.168;4.112;2022-07-06T06:18:18;14.68;;;9.00;;
23142;SDS011;11740;51.168;4.112;2022-07-06T06:20:46;11.73;;;7.40;;
23142;SDS011;11740;51.168;4.112;2022-07-06T06:23:13;14.73;;;8.48;;
23142;SDS011;11740;51.168;4.112;2022-07-06T06:25:41;11.85;;;8.30;;
23142;SDS011;11740;51.168;4.112;2022-07-06T06:28:09;15.98;;;8.05;;
23142;SDS011;11740;51.168;4.112;2022-07-06T06:30:37;15.55;;;7.97;;
23142;SDS011;11740;51.168;4.112;2022-07-06T06:33:09;15.30;;;8.57;;
23142;SDS011;11740;51.168;4.112;2022-07-06T06:35:41;15.77;;;9.00;;
23142;SDS011;11740;51.168;4.112;2022-07-06T06:38:17;19.17;;;9.10;;
23142;SDS011;11740;51.168;4.112;2022-07-06T06:40:46;16.55;;;8.23;;
23142;SDS011;11740;51.168;4.112;2022-07-06T06:43:14;20.75;;;8.68;;
23142;SDS011;11740;51.168;4.112;2022-07-06T06:45:41;15.48;;;8.85;;
23142;SDS011;11740;51.168;4.112;2022-07-06T06:48:08;16.40;;;8.50;;
23142;SDS011;11740;51.168;4.112;2022-07-06T06:50:41;14.70;;;7.57;;
23142;SDS011;11740;51.168;4.112;2022-07-06T06:53:09;16.13;;;7.65;;
23142;SDS011;11740;51.168;4.112;2022-07-06T06:55:35;18.35;;;7.95;;
23142;SDS011;11740;51.168;4.112;2022-07-06T06:58:02;16.45;;;7.57;;
23142;SDS011;11740;51.168;4.112;2022-07-06T07:00:29;14.68;;;8.05;;
23142;SDS011;11740;51.168;4.112;2022-07-06T07:02:56;19.38;;;7.82;;
23142;SDS011;11740;51.168;4.112;2022-07-06T07:05:23;14.25;;;6.43;;
23142;SDS011;11740;51.168;4.112;2022-07-06T07:07:50;13.93;;;6.15;;
23142;SDS011;11740;51.168;4.112;2022-07-06T07:10:17;13.00;;;5.60;;
23142;SDS011;11740;51.168;4.112;2022-07-06T07:12:45;13.10;;;6.13;;
23142;SDS011;11740;51.168;4.112;2022-07-06T07:15:13;11.50;;;6.15;;
23142;SDS011;11740;51.168;4.112;2022-07-06T07:17:42;15.93;;;5.60;;
23142;SDS011;11740;51.168;4.112;2022-07-06T07:20:09;12.38;;;5.03;;
23142;SDS011;11740;51.168;4.112;2022-07-06T07:22:36;12.05;;;4.95;;
23142;SDS011;11740;51.168;4.112;2022-07-06T07:25:04;14.82;;;4.90;;
23142;SDS011;11740;51.168;4.112;2022-07-06T07:27:32;17.38;;;4.70;;
23142;SDS011;11740;51.168;4.112;2022-07-06T07:29:59;10.15;;;4.90;;
23142;SDS011;11740;51.168;4.112;2022-07-06T07:32:29;8.95;;;4.20;;
23142;SDS011;11740;51.168;4.112;2022-07-06T07:34:56;8.43;;;4.10;;
23142;SDS011;11740;51.168;4.112;2022-07-06T07:37:23;7.63;;;3.30;;
23142;SDS011;11740;51.168;4.112;2022-07-06T07:39:50;5.90;;;2.78;;
23142;SDS011;11740;51.168;4.112;2022-07-06T07:42:18;9.38;;;3.15;;
23142;SDS011;11740;51.168;4.112;2022-07-06T07:44:45;7.05;;;3.50;;
23142;SDS011;11740;51.168;4.112;2022-07-06T07:47:12;6.50;;;3.72;;
23142;SDS011;11740;51.168;4.112;2022-07-06T07:49:39;5.32;;;3.22;;
23142;SDS011;11740;51.168;4.112;2022-07-06T07:52:06;11.68;;;3.90;;
23142;SDS011;11740;51.168;4.112;2022-07-06T07:54:33;8.93;;;4.03;;
23142;SDS011;11740;51.168;4.112;2022-07-06T07:57:00;6.97;;;3.30;;
23142;SDS011;11740;51.168;4.112;2022-07-06T07:59:28;5.47;;;2.38;;
23142;SDS011;11740;51.168;4.112;2022-07-06T08:01:57;5.47;;;2.17;;
23142;SDS011;11740;51.168;4.112;2022-07-06T08:04:25;6.60;;;2.38;;
23142;SDS011;11740;51.168;4.112;2022-07-06T08:06:52;7.78;;;1.83;;
23142;SDS011;11740;51.168;4.112;2022-07-06T08:09:26;4.80;;;1.83;;
23142;SDS011;11740;51.168;4.112;2022-07-06T08:11:53;5.85;;;1.80;;
23142;SDS011;11740;51.168;4.112;2022-07-06T08:14:21;5.40;;;2.03;;
23142;SDS011;11740;51.168;4.112;2022-07-06T08:16:48;6.13;;;2.00;;
23142;SDS011;11740;51.168;4.112;2022-07-06T08:19:16;6.45;;;2.00;;
23142;SDS011;11740;51.168;4.112;2022-07-06T08:21:43;6.13;;;2.42;;
23142;SDS011;11740;51.168;4.112;2022-07-06T08:24:10;4.07;;;2.05;;
23142;SDS011;11740;51.168;4.112;2022-07-06T08:26:37;4.78;;;2.83;;
23142;SDS011;11740;51.168;4.112;2022-07-06T08:29:04;4.65;;;3.10;;
23142;SDS011;11740;51.168;4.112;2022-07-06T08:31:32;6.43;;;2.95;;
23142;SDS011;11740;51.168;4.112;2022-07-06T08:34:20;6.28;;;3.03;;
23142;SDS011;11740;51.168;4.112;2022-07-06T08:36:48;7.30;;;3.05;;
23142;SDS011;11740;51.168;4.112;2022-07-06T08:39:17;7.43;;;2.50;;
23142;SDS011;11740;51.168;4.112;2022-07-06T08:41:45;5.25;;;2.85;;
23142;SDS011;11740;51.168;4.112;2022-07-06T08:44:15;6.90;;;2.42;;
23142;SDS011;11740;51.168;4.112;2022-07-06T08:46:43;5.63;;;2.75;;
23142;SDS011;11740;51.168;4.112;2022-07-06T08:49:16;6.15;;;3.42;;
23142;SDS011;11740;51.168;4.112;2022-07-06T08:51:44;6.80;;;3.92;;
23142;SDS011;11740;51.168;4.112;2022-07-06T08:54:11;4.80;;;3.20;;
23142;SDS011;11740;51.168;4.112;2022-07-06T08:56:39;10.15;;;3.33;;
23142;SDS011;11740;51.168;4.112;2022-07-06T08:59:13;6.55;;;3.60;;
23142;SDS011;11740;51.168;4.112;2022-07-06T09:01:42;6.97;;;3.60;;
23142;SDS011;11740;51.168;4.112;2022-07-06T09:04:12;7.00;;;3.45;;
23142;SDS011;11740;51.168;4.112;2022-07-06T09:06:43;5.38;;;3.50;;
23142;SDS011;11740;51.168;4.112;2022-07-06T09:09:16;7.15;;;3.40;;
23142;SDS011;11740;51.168;4.112;2022-07-06T09:11:48;9.98;;;3.90;;
23142;SDS011;11740;51.168;4.112;2022-07-06T09:14:17;7.95;;;3.75;;
23142;SDS011;11740;51.168;4.112;2022-07-06T09:16:46;8.35;;;3.63;;
23142;SDS011;11740;51.168;4.112;2022-07-06T09:19:22;8.63;;;3.38;;
23142;SDS011;11740;51.168;4.112;2022-07-06T09:21:49;7.43;;;3.28;;
23142;SDS011;11740;51.168;4.112;2022-07-06T09:24:16;7.00;;;3.20;;
23142;SDS011;11740;51.168;4.112;2022-07-06T09:26:44;7.25;;;2.97;;
23142;SDS011;11740;51.168;4.112;2022-07-06T09:29:13;7.72;;;3.30;;
23142;SDS011;11740;51.168;4.112;2022-07-06T09:31:40;9.23;;;3.20;;
23142;SDS011;11740;51.168;4.112;2022-07-06T09:34:08;11.20;;;3.33;;
23142;SDS011;11740;51.168;4.112;2022-07-06T09:36:43;5.78;;;3.08;;
23142;SDS011;11740;51.168;4.112;2022-07-06T09:41:57;6.70;;;3.67;;
23142;SDS011;11740;51.168;4.112;2022-07-06T09:47:10;6.97;;;3.63;;
23142;SDS011;11740;51.168;4.112;2022-07-06T09:49:38;8.55;;;3.38;;
23142;SDS011;11740;51.168;4.112;2022-07-06T09:52:07;8.85;;;3.20;;
23142;SDS011;11740;51.168;4.112;2022-07-06T09:54:37;7.82;;;2.78;;
23142;SDS011;11740;51.168;4.112;2022-07-06T09:57:05;5.43;;;2.80;;
23142;SDS011;11740;51.168;4.112;2022-07-06T09:59:35;8.32;;;3.13;;
23142;SDS011;11740;51.168;4.112;2022-07-06T10:02:03;8.85;;;3.65;;
23142;SDS011;11740;51.168;4.112;2022-07-06T10:04:33;6.70;;;2.78;;
23142;SDS011;11740;51.168;4.112;2022-07-06T10:07:01;6.97;;;3.10;;
23142;SDS011;11740;51.168;4.112;2022-07-06T10:09:28;9.30;;;3.80;;
23142;SDS011;11740;51.168;4.112;2022-07-06T10:11:59;5.95;;;3.20;;
23142;SDS011;11740;51.168;4.112;2022-07-06T10:14:29;5.35;;;3.30;;
23142;SDS011;11740;51.168;4.112;2022-07-06T10:16:59;7.93;;;3.60;;
23142;SDS011;11740;51.168;4.112;2022-07-06T10:19:30;5.75;;;3.28;;
23142;SDS011;11740;51.168;4.112;2022-07-06T10:21:59;6.05;;;3.35;;
23142;SDS011;11740;51.168;4.112;2022-07-06T10:24:28;5.88;;;3.97;;
23142;SDS011;11740;51.168;4.112;2022-07-06T10:26:57;8.27;;;3.97;;
23142;SDS011;11740;51.168;4.112;2022-07-06T10:29:24;8.50;;;4.20;;
23142;SDS011;11740;51.168;4.112;2022-07-06T10:31:52;7.32;;;3.97;;
23142;SDS011;11740;51.168;4.112;2022-07-06T10:34:21;8.88;;;3.90;;
23142;SDS011;11740;51.168;4.112;2022-07-06T10:36:49;5.00;;;3.20;;
23142;SDS011;11740;51.168;4.112;2022-07-06T10:39:36;7.10;;;3.20;;
23142;SDS011;11740;51.168;4.112;2022-07-06T10:46:01;6.90;;;3.60;;
23142;SDS011;11740;51.168;4.112;2022-07-06T10:53:25;7.93;;;3.40;;
23142;SDS011;11740;51.168;4.112;2022-07-06T10:55:55;6.05;;;2.95;;
23142;SDS011;11740;51.168;4.112;2022-07-06T10:58:36;6.63;;;3.00;;
23142;SDS011;11740;51.168;4.112;2022-07-06T11:01:11;6.57;;;2.80;;
23142;SDS011;11740;51.168;4.112;2022-07-06T11:03:48;6.72;;;3.53;;
23142;SDS011;11740;51.168;4.112;2022-07-06T11:06:31;4.82;;;2.90;;
23142;SDS011;11740;51.168;4.112;2022-07-06T11:09:02;5.45;;;3.30;;
23142;SDS011;11740;51.168;4.112;2022-07-06T11:11:38;7.97;;;3.55;;
23142;SDS011;11740;51.168;4.112;2022-07-06T11:14:09;8.27;;;3.78;;
23142;SDS011;11740;51.168;4.112;2022-07-06T11:19:16;6.85;;;3.45;;
23142;SDS011;11740;51.168;4.112;2022-07-06T11:21:46;9.48;;;4.68;;
23142;SDS011;11740;51.168;4.112;2022-07-06T11:24:16;11.13;;;4.70;;
23142;SDS011;11740;51.168;4.112;2022-07-06T11:26:47;10.50;;;4.60;;
23142;SDS011;11740;51.168;4.112;2022-07-06T11:29:17;9.00;;;4.32;;
23142;SDS011;11740;51.168;4.112;2022-07-06T11:31:51;8.50;;;4.07;;
23142;SDS011;11740;51.168;4.112;2022-07-06T11:34:22;7.25;;;4.85;;
23142;SDS011;11740;51.168;4.112;2022-07-06T11:36:54;9.50;;;4.70;;
23142;SDS011;11740;51.168;4.112;2022-07-06T11:39:42;10.85;;;4.70;;
23142;SDS011;11740;51.168;4.112;2022-07-06T11:42:13;8.07;;;4.25;;
23142;SDS011;11740;51.168;4.112;2022-07-06T11:44:46;8.63;;;4.90;;
23142;SDS011;11740;51.168;4.112;2022-07-06T11:47:13;11.30;;;4.57;;
23142;SDS011;11740;51.168;4.112;2022-07-06T11:49:49;9.95;;;4.13;;
23142;SDS011;11740;51.168;4.112;2022-07-06T11:52:19;9.65;;;4.75;;
23142;SDS011;11740;51.168;4.112;2022-07-06T11:54:46;9.82;;;4.00;;
23142;SDS011;11740;51.168;4.112;2022-07-06T11:57:12;9.43;;;5.32;;
23142;SDS011;11740;51.168;4.112;2022-07-06T11:59:40;11.50;;;5.90;;
23142;SDS011;11740;51.168;4.112;2022-07-06T12:02:12;10.07;;;4.88;;
23142;SDS011;11740;51.168;4.112;2022-07-06T12:04:44;9.68;;;4.78;;
23142;SDS011;11740;51.168;4.112;2022-07-06T12:07:13;9.70;;;4.72;;
23142;SDS011;11740;51.168;4.112;2022-07-06T12:09:44;10.52;;;4.90;;
23142;SDS011;11740;51.168;4.112;2022-07-06T12:12:13;9.40;;;4.05;;
23142;SDS011;11740;51.168;4.112;2022-07-06T12:14:43;9.43;;;4.00;;
23142;SDS011;11740;51.168;4.112;2022-07-06T12:17:11;8.63;;;3.90;;
23142;SDS011;11740;51.168;4.112;2022-07-06T12:19:41;6.13;;;3.35;;
23142;SDS011;11740;51.168;4.112;2022-07-06T12:22:09;6.00;;;4.00;;
23142;SDS011;11740;51.168;4.112;2022-07-06T12:24:37;6.30;;;2.90;;
23142;SDS011;11740;51.168;4.112;2022-07-06T12:27:15;8.05;;;3.63;;
23142;SDS011;11740;51.168;4.112;2022-07-06T12:29:45;7.45;;;3.42;;
23142;SDS011;11740;51.168;4.112;2022-07-06T12:32:17;5.22;;;2.78;;
23142;SDS011;11740;51.168;4.112;2022-07-06T12:37:56;7.30;;;3.40;;
23142;SDS011;11740;51.168;4.112;2022-07-06T12:40:25;5.75;;;2.90;;
23142;SDS011;11740;51.168;4.112;2022-07-06T12:42:56;6.45;;;2.90;;
23142;SDS011;11740;51.168;4.112;2022-07-06T12:45:27;8.65;;;3.20;;
23142;SDS011;11740;51.168;4.112;2022-07-06T12:47:59;7.95;;;3.47;;
23142;SDS011;11740;51.168;4.112;2022-07-06T12:50:35;10.88;;;3.40;;
23142;SDS011;11740;51.168;4.112;2022-07-06T12:53:05;4.78;;;2.63;;
23142;SDS011;11740;51.168;4.112;2022-07-06T12:56:07;6.32;;;2.67;;
23142;SDS011;11740;51.168;4.112;2022-07-06T12:58:39;7.78;;;2.60;;
23142;SDS011;11740;51.168;4.112;2022-07-06T13:01:06;5.78;;;2.40;;
23142;SDS011;11740;51.168;4.112;2022-07-06T13:03:41;6.28;;;2.97;;
23142;SDS011;11740;51.168;4.112;2022-07-06T13:06:08;4.47;;;2.70;;
23142;SDS011;11740;51.168;4.112;2022-07-06T13:08:35;7.05;;;2.78;;
23142;SDS011;11740;51.168;4.112;2022-07-06T13:11:02;6.32;;;2.53;;
23142;SDS011;11740;51.168;4.112;2022-07-06T13:13:30;6.53;;;2.10;;
23142;SDS011;11740;51.168;4.112;2022-07-06T13:15:57;4.57;;;1.90;;
23142;SDS011;11740;51.168;4.112;2022-07-06T13:18:24;7.45;;;2.47;;
23142;SDS011;11740;51.168;4.112;2022-07-06T13:20:51;6.25;;;2.20;;
23142;SDS011;11740;51.168;4.112;2022-07-06T13:23:18;7.05;;;2.33;;
23142;SDS011;11740;51.168;4.112;2022-07-06T13:25:45;5.63;;;2.40;;
23142;SDS011;11740;51.168;4.112;2022-07-06T13:28:12;6.85;;;2.50;;
23142;SDS011;11740;51.168;4.112;2022-07-06T13:30:39;7.55;;;2.15;;
23142;SDS011;11740;51.168;4.112;2022-07-06T13:33:06;7.57;;;2.10;;
23142;SDS011;11740;51.168;4.112;2022-07-06T13:35:33;5.35;;;2.20;;
23142;SDS011;11740;51.168;4.112;2022-07-06T13:38:00;5.68;;;2.10;;
23142;SDS011;11740;51.168;4.112;2022-07-06T13:40:27;4.70;;;2.40;;
23142;SDS011;11740;51.168;4.112;2022-07-06T13:42:54;3.65;;;2.00;;
23142;SDS011;11740;51.168;4.112;2022-07-06T13:45:21;7.45;;;2.20;;
23142;SDS011;11740;51.168;4.112;2022-07-06T13:47:50;5.63;;;2.13;;
23142;SDS011;11740;51.168;4.112;2022-07-06T13:50:17;5.05;;;2.22;;
23142;SDS011;11740;51.168;4.112;2022-07-06T13:52:44;6.85;;;2.33;;
23142;SDS011;11740;51.168;4.112;2022-07-06T13:55:11;8.18;;;2.38;;
23142;SDS011;11740;51.168;4.112;2022-07-06T13:57:38;6.45;;;2.60;;
23142;SDS011;11740;51.168;4.112;2022-07-06T14:00:08;7.68;;;2.72;;
23142;SDS011;11740;51.168;4.112;2022-07-06T14:02:36;5.72;;;2.65;;
23142;SDS011;11740;51.168;4.112;2022-07-06T14:05:03;9.50;;;2.50;;
23142;SDS011;11740;51.168;4.112;2022-07-06T14:07:30;6.57;;;2.42;;
23142;SDS011;11740;51.168;4.112;2022-07-06T14:09:58;7.25;;;2.70;;
23142;SDS011;11740;51.168;4.112;2022-07-06T14:12:25;6.80;;;2.30;;
23142;SDS011;11740;51.168;4.112;2022-07-06T14:14:53;4.55;;;2.25;;
23142;SDS011;11740;51.168;4.112;2022-07-06T14:17:20;6.03;;;2.30;;
23142;SDS011;11740;51.168;4.112;2022-07-06T14:19:48;5.97;;;2.80;;
23142;SDS011;11740;51.168;4.112;2022-07-06T14:22:15;5.82;;;2.45;;
23142;SDS011;11740;51.168;4.112;2022-07-06T14:24:42;5.75;;;2.50;;
23142;SDS011;11740;51.168;4.112;2022-07-06T14:27:09;4.07;;;2.30;;
23142;SDS011;11740;51.168;4.112;2022-07-06T14:29:36;6.88;;;2.80;;
23142;SDS011;11740;51.168;4.112;2022-07-06T14:32:04;6.15;;;2.25;;
23142;SDS011;11740;51.168;4.112;2022-07-06T14:34:31;6.55;;;2.72;;
23142;SDS011;11740;51.168;4.112;2022-07-06T14:36:58;4.88;;;2.80;;
23142;SDS011;11740;51.168;4.112;2022-07-06T14:39:25;5.32;;;3.17;;
23142;SDS011;11740;51.168;4.112;2022-07-06T14:41:52;6.97;;;3.00;;
23142;SDS011;11740;51.168;4.112;2022-07-06T14:44:19;7.10;;;3.33;;
23142;SDS011;11740;51.168;4.112;2022-07-06T14:46:46;6.80;;;2.85;;
23142;SDS011;11740;51.168;4.112;2022-07-06T14:49:13;6.22;;;3.38;;
23142;SDS011;11740;51.168;4.112;2022-07-06T14:51:46;7.78;;;3.22;;
23142;SDS011;11740;51.168;4.112;2022-07-06T14:54:14;7.85;;;2.90;;
23142;SDS011;11740;51.168;4.112;2022-07-06T14:56:41;11.55;;;3.17;;
23142;SDS011;11740;51.168;4.112;2022-07-06T14:59:09;8.90;;;3.55;;
23142;SDS011;11740;51.168;4.112;2022-07-06T15:01:52;7.43;;;3.22;;
23142;SDS011;11740;51.168;4.112;2022-07-06T15:04:19;8.93;;;3.30;;
23142;SDS011;11740;51.168;4.112;2022-07-06T15:06:46;9.13;;;3.17;;
23142;SDS011;11740;51.168;4.112;2022-07-06T15:09:20;6.60;;;2.65;;
23142;SDS011;11740;51.168;4.112;2022-07-06T15:11:48;5.90;;;2.30;;
23142;SDS011;11740;51.168;4.112;2022-07-06T15:14:15;5.32;;;2.00;;
23142;SDS011;11740;51.168;4.112;2022-07-06T15:16:43;6.28;;;2.20;;